Terminal Aerodrome Forecast
Issued by NWS Charleston, WV

Current Version | Previous Version | Graphics & Text | Print | Product List | Glossary On
Versions: 1 2 3 4 5 6 7 8 9 10 11 12 13 14 15 16 17 18 19 20 21 22 23 24 25 26
392
FTUS41 KRLX 300000 CCA
TAFPKB
TAF COR
KPKB 300000Z 3000/3024 00000KT 5SM BR SKC
     FM300200 00000KT 3SM BR SCT200
     FM300400 00000KT 2SM BR SCT200
     FM301300 VRB04KT P6SM BKN200=

USA.gov is the U.S. government's official web portal to all federal, state and local government web resources and services.